Weather Underground History

Daily Summary for March 20, 2019 Units:  Metric    English   Both
« Previous Day
Next Day »
Daily Weekly Monthly Yearly Custom
  Current: High: Low: Average:
Temperature: 10.0 °C 10.0 °C 7.3 °C 8.3 °C
Dew Point: 8.6 °C 8.7 °C 6.1 °C 7.2 °C
Humidity: 91% 94% 91% 93%
Wind Speed: 12.9km/h 12.9km/h 0.0km/h 6.9km/h
Wind Gust: 12.9km/h 17.7km/h - -
WindSW - - SW
Pressure: 1029.4 hPa 1029.6 hPa 1026.9 hPa -
Precipitation: 0.0 mm      
Historical Graphs
 
 
Tabular Data for March 20, 2019
Time Temperature Dew Point Pressure Wind Wind Speed Wind Gust Humidity Rainfall Rate (Hourly) solar
00:04 8.4 °C 7.0 °C 1027.2 hPa WSW 6.4 km/h 12.9 km/h 91% 0.0 mm 0.00 W/m2
00:09 8.5 °C 7.1 °C 1027.1 hPa SW 8.0 km/h 12.9 km/h 91% 0.0 mm 0.00 W/m2
00:14 8.6 °C 7.2 °C 1027.1 hPa WSW 11.3 km/h 14.5 km/h 91% 0.0 mm 0.00 W/m2
00:19 8.5 °C 7.1 °C 1027.0 hPa SW 6.4 km/h 11.3 km/h 91% 0.0 mm 0.00 W/m2
00:24 8.4 °C 7.1 °C 1026.9 hPa SW 8.0 km/h 11.3 km/h 91% 0.0 mm 0.00 W/m2
00:29 8.4 °C 7.1 °C 1027.0 hPa SW 11.3 km/h 11.3 km/h 91% 0.0 mm 0.00 W/m2
00:34 8.5 °C 7.1 °C 1026.9 hPa SW 4.8 km/h 8.0 km/h 91% 0.0 mm 0.00 W/m2
00:39 8.5 °C 7.1 °C 1026.9 hPa SW 6.4 km/h 12.9 km/h 91% 0.0 mm 0.00 W/m2
00:44 8.4 °C 7.1 °C 1027.1 hPa SW 4.8 km/h 8.0 km/h 91% 0.0 mm 0.00 W/m2
00:49 8.3 °C 6.9 °C 1027.1 hPa SW 4.8 km/h 8.0 km/h 91% 0.0 mm 0.00 W/m2
00:54 8.3 °C 6.9 °C 1027.2 hPa WSW 3.2 km/h 6.4 km/h 91% 0.0 mm 0.00 W/m2
00:59 8.2 °C 6.8 °C 1027.4 hPa WSW 4.8 km/h 8.0 km/h 91% 0.0 mm 0.00 W/m2
01:04 8.1 °C 6.7 °C 1027.2 hPa WSW 4.8 km/h 9.7 km/h 91% 0.0 mm 0.00 W/m2
01:09 8.2 °C 6.8 °C 1027.1 hPa SW 9.7 km/h 14.5 km/h 91% 0.0 mm 0.00 W/m2
01:15 8.2 °C 6.8 °C 1027.2 hPa WSW 12.9 km/h 12.9 km/h 91% 0.0 mm 0.00 W/m2
01:19 8.2 °C 6.9 °C 1027.3 hPa WSW 12.9 km/h 17.7 km/h 92% 0.0 mm 0.00 W/m2
01:24 8.2 °C 7.0 °C 1027.4 hPa West 12.9 km/h 16.1 km/h 92% 0.0 mm 0.00 W/m2
01:29 8.2 °C 7.0 °C 1027.2 hPa WSW 9.7 km/h 14.5 km/h 92% 0.0 mm 0.00 W/m2
01:34 8.2 °C 6.9 °C 1027.3 hPa West 4.8 km/h 8.0 km/h 92% 0.0 mm 0.00 W/m2
01:39 8.2 °C 6.9 °C 1027.3 hPa West 4.8 km/h 8.0 km/h 92% 0.0 mm 0.00 W/m2
01:44 8.0 °C 6.8 °C 1027.3 hPa West 6.4 km/h 6.4 km/h 92% 0.0 mm 0.00 W/m2
01:49 7.9 °C 6.7 °C 1027.4 hPa West 4.8 km/h 4.8 km/h 92% 0.0 mm 0.00 W/m2
01:54 7.8 °C 6.6 °C 1027.5 hPa West 3.2 km/h 8.0 km/h 92% 0.0 mm 0.00 W/m2
01:59 7.7 °C 6.5 °C 1027.6 hPa Calm   4.8 km/h 92% 0.0 mm 0.00 W/m2
02:04 7.7 °C 6.4 °C 1027.5 hPa Calm     92% 0.0 mm 0.00 W/m2
02:09 7.7 °C 6.4 °C 1027.5 hPa West 4.8 km/h 6.4 km/h 92% 0.0 mm 0.00 W/m2
02:14 7.7 °C 6.4 °C 1027.5 hPa West 4.8 km/h 8.0 km/h 92% 0.0 mm 0.00 W/m2
02:19 7.7 °C 6.5 °C 1027.5 hPa Calm   1.6 km/h 92% 0.0 mm 0.00 W/m2
02:24 7.7 °C 6.4 °C 1027.5 hPa West 4.8 km/h 6.4 km/h 92% 0.0 mm 0.00 W/m2
02:29 7.7 °C 6.4 °C 1027.6 hPa Calm   6.4 km/h 92% 0.0 mm 0.00 W/m2
02:34 7.6 °C 6.4 °C 1027.5 hPa West 3.2 km/h 4.8 km/h 92% 0.0 mm 0.00 W/m2
02:39 7.6 °C 6.3 °C 1027.4 hPa West 4.8 km/h 8.0 km/h 92% 0.0 mm 0.00 W/m2
02:44 7.5 °C 6.3 °C 1027.5 hPa WSW 4.8 km/h 8.0 km/h 92% 0.0 mm 0.00 W/m2
02:49 7.5 °C 6.4 °C 1027.5 hPa Calm   6.4 km/h 93% 0.0 mm 0.00 W/m2
02:54 7.4 °C 6.4 °C 1027.4 hPa WSW 3.2 km/h 6.4 km/h 93% 0.0 mm 0.00 W/m2
02:59 7.4 °C 6.4 °C 1027.4 hPa SSW 4.8 km/h 8.0 km/h 93% 0.0 mm 0.00 W/m2
03:04 7.4 °C 6.4 °C 1027.4 hPa SSW 4.8 km/h 8.0 km/h 93% 0.0 mm 0.00 W/m2
03:09 7.4 °C 6.4 °C 1027.5 hPa SSW 4.8 km/h 6.4 km/h 93% 0.0 mm 0.00 W/m2
03:14 7.3 °C 6.1 °C 1027.5 hPa SSW 3.2 km/h 4.8 km/h 92% 0.0 mm 0.00 W/m2
03:19 7.3 °C 6.2 °C 1027.4 hPa SSW 8.0 km/h 11.3 km/h 93% 0.0 mm 0.00 W/m2
03:24 7.3 °C 6.2 °C 1027.4 hPa SSW 6.4 km/h 9.7 km/h 93% 0.0 mm 0.00 W/m2
03:29 7.3 °C 6.2 °C 1027.4 hPa SSW 6.4 km/h 9.7 km/h 93% 0.0 mm 0.00 W/m2
03:34 7.3 °C 6.3 °C 1027.5 hPa SSW 6.4 km/h 8.0 km/h 93% 0.0 mm 0.00 W/m2
03:39 7.3 °C 6.3 °C 1027.4 hPa SSW 8.0 km/h 9.7 km/h 93% 0.0 mm 0.00 W/m2
03:44 7.4 °C 6.4 °C 1027.4 hPa SSW 4.8 km/h 8.0 km/h 93% 0.0 mm 0.00 W/m2
03:49 7.6 °C 6.5 °C 1027.5 hPa SSW 6.4 km/h 8.0 km/h 93% 0.0 mm 0.00 W/m2
03:54 7.7 °C 6.8 °C 1027.6 hPa SSW 4.8 km/h 12.9 km/h 94% 0.0 mm 0.00 W/m2
03:59 7.8 °C 6.9 °C 1027.5 hPa SSW 9.7 km/h 9.7 km/h 94% 0.0 mm 0.00 W/m2
04:04 7.9 °C 7.0 °C 1027.6 hPa SW 6.4 km/h 11.3 km/h 94% 0.0 mm 0.00 W/m2
04:09 8.0 °C 7.1 °C 1027.5 hPa SSW 3.2 km/h 8.0 km/h 94% 0.0 mm 0.00 W/m2
04:14 8.1 °C 7.2 °C 1027.5 hPa SW 12.9 km/h 12.9 km/h 94% 0.0 mm 0.00 W/m2
04:19 8.1 °C 7.2 °C 1027.5 hPa SW 8.0 km/h 9.7 km/h 94% 0.0 mm 0.00 W/m2
04:24 8.2 °C 7.3 °C 1027.6 hPa SW 8.0 km/h 11.3 km/h 94% 0.0 mm 0.00 W/m2
04:29 8.2 °C 7.3 °C 1027.5 hPa SSW 11.3 km/h 12.9 km/h 94% 0.0 mm 0.00 W/m2
04:34 8.2 °C 7.3 °C 1027.5 hPa SSW 8.0 km/h 14.5 km/h 94% 0.0 mm 0.00 W/m2
04:39 8.3 °C 7.4 °C 1027.5 hPa SW 6.4 km/h 12.9 km/h 94% 0.0 mm 0.00 W/m2
04:44 8.3 °C 7.4 °C 1027.5 hPa SW 8.0 km/h 16.1 km/h 94% 0.0 mm 0.00 W/m2
04:49 8.3 °C 7.2 °C 1027.6 hPa SW 6.4 km/h 11.3 km/h 93% 0.0 mm 0.00 W/m2
04:54 8.3 °C 7.2 °C 1027.7 hPa SW 4.8 km/h 16.1 km/h 93% 0.0 mm 0.00 W/m2
04:59 8.3 °C 7.2 °C 1027.5 hPa SW 9.7 km/h 9.7 km/h 93% 0.0 mm 0.00 W/m2
05:04 8.3 °C 7.2 °C 1027.7 hPa SW 3.2 km/h 4.8 km/h 93% 0.0 mm 0.00 W/m2
05:09 8.3 °C 7.2 °C 1027.6 hPa SW 4.8 km/h 9.7 km/h 93% 0.0 mm 0.00 W/m2
05:14 8.3 °C 7.2 °C 1027.7 hPa SW 8.0 km/h 11.3 km/h 93% 0.0 mm 0.00 W/m2
05:19 8.3 °C 7.2 °C 1027.7 hPa SW 8.0 km/h 11.3 km/h 93% 0.0 mm 0.00 W/m2
05:24 8.2 °C 7.2 °C 1027.9 hPa WSW 6.4 km/h 12.9 km/h 93% 0.0 mm 0.00 W/m2
05:29 8.2 °C 7.2 °C 1027.8 hPa SW 6.4 km/h 12.9 km/h 93% 0.0 mm 0.00 W/m2
05:35 8.2 °C 7.1 °C 1027.8 hPa SW 6.4 km/h 8.0 km/h 93% 0.0 mm 0.00 W/m2
05:39 8.1 °C 7.1 °C 1028.0 hPa SW 8.0 km/h 8.0 km/h 93% 0.0 mm 0.00 W/m2
05:44 8.1 °C 7.1 °C 1028.0 hPa SW 6.4 km/h 9.7 km/h 93% 0.0 mm 0.00 W/m2
05:49 8.1 °C 7.0 °C 1027.8 hPa SSW 9.7 km/h 12.9 km/h 93% 0.0 mm 0.00 W/m2
05:54 8.1 °C 7.0 °C 1027.8 hPa SW 9.7 km/h 12.9 km/h 93% 0.0 mm 0.00 W/m2
05:59 8.1 °C 7.2 °C 1027.8 hPa SW 6.4 km/h 17.7 km/h 94% 0.0 mm 0.00 W/m2
06:04 8.0 °C 7.1 °C 1027.9 hPa SW 11.3 km/h 11.3 km/h 94% 0.0 mm 0.00 W/m2
06:09 7.9 °C 6.9 °C 1027.8 hPa SW 9.7 km/h 17.7 km/h 93% 0.0 mm 0.00 W/m2
06:14 8.0 °C 7.1 °C 1027.9 hPa SW 8.0 km/h 12.9 km/h 94% 0.0 mm 0.00 W/m2
06:19 7.9 °C 6.9 °C 1028.0 hPa SW 6.4 km/h 11.3 km/h 93% 0.0 mm 5.00 W/m2
06:24 8.0 °C 7.1 °C 1028.0 hPa SW 8.0 km/h 14.5 km/h 94% 0.0 mm 9.00 W/m2
06:29 8.0 °C 7.1 °C 1028.1 hPa SW 6.4 km/h 8.0 km/h 94% 0.0 mm 11.00 W/m2
06:34 8.0 °C 7.1 °C 1028.0 hPa SW 4.8 km/h 12.9 km/h 94% 0.0 mm 16.00 W/m2
06:39 8.1 °C 7.2 °C 1028.1 hPa SW 11.3 km/h 12.9 km/h 94% 0.0 mm 21.00 W/m2
06:44 8.1 °C 7.2 °C 1028.3 hPa SW 4.8 km/h 11.3 km/h 94% 0.0 mm 23.00 W/m2
06:49 8.2 °C 7.3 °C 1028.2 hPa SW 11.3 km/h 14.5 km/h 94% 0.0 mm 23.00 W/m2
06:54 8.2 °C 7.3 °C 1028.4 hPa SW 9.7 km/h 11.3 km/h 94% 0.0 mm 25.00 W/m2
06:59 8.3 °C 7.4 °C 1028.5 hPa WSW 6.4 km/h 16.1 km/h 94% 0.0 mm 30.00 W/m2
07:04 8.3 °C 7.4 °C 1028.6 hPa SW 4.8 km/h 9.7 km/h 94% 0.0 mm 37.00 W/m2
07:09 8.3 °C 7.4 °C 1028.6 hPa SW 6.4 km/h 11.3 km/h 94% 0.0 mm 40.00 W/m2
07:14 8.4 °C 7.6 °C 1028.8 hPa WSW 11.3 km/h 12.9 km/h 94% 0.0 mm 53.00 W/m2
07:19 8.5 °C 7.6 °C 1028.8 hPa WSW 9.7 km/h 12.9 km/h 94% 0.0 mm 47.00 W/m2
07:24 8.6 °C 7.7 °C 1028.9 hPa SW 8.0 km/h 12.9 km/h 94% 0.0 mm 54.00 W/m2
07:29 8.6 °C 7.6 °C 1029.0 hPa SW 3.2 km/h 6.4 km/h 93% 0.0 mm 54.00 W/m2
07:34 8.6 °C 7.6 °C 1029.0 hPa SW 12.9 km/h 12.9 km/h 93% 0.0 mm 56.00 W/m2
07:39 8.7 °C 7.6 °C 1029.0 hPa WSW 8.0 km/h 12.9 km/h 93% 0.0 mm 65.00 W/m2
07:44 8.7 °C 7.8 °C 1028.9 hPa SW 9.7 km/h 14.5 km/h 94% 0.0 mm 72.00 W/m2
07:50 8.7 °C 7.6 °C 1029.0 hPa SSW 6.4 km/h 12.9 km/h 93% 0.0 mm 65.00 W/m2
07:54 8.7 °C 7.6 °C 1029.1 hPa SSW 6.4 km/h 8.0 km/h 93% 0.0 mm 72.00 W/m2
07:59 8.7 °C 7.7 °C 1029.1 hPa SW 6.4 km/h 12.9 km/h 93% 0.0 mm 74.00 W/m2
08:04 8.7 °C 7.7 °C 1029.2 hPa Calm   8.0 km/h 93% 0.0 mm 76.00 W/m2
08:09 8.8 °C 7.7 °C 1029.2 hPa SW 6.4 km/h 9.7 km/h 93% 0.0 mm 86.00 W/m2
08:14 8.9 °C 7.8 °C 1029.2 hPa SW 8.0 km/h 11.3 km/h 93% 0.0 mm 107.00 W/m2
08:19 8.9 °C 7.9 °C 1029.2 hPa SW 4.8 km/h 9.7 km/h 93% 0.0 mm 107.00 W/m2
08:24 9.0 °C 7.9 °C 1029.3 hPa SW 9.7 km/h 9.7 km/h 93% 0.0 mm 107.00 W/m2
08:29 9.1 °C 8.0 °C 1029.2 hPa SW 12.9 km/h 12.9 km/h 93% 0.0 mm 181.00 W/m2
08:34 9.2 °C 8.1 °C 1029.3 hPa SW 12.9 km/h 12.9 km/h 93% 0.0 mm 165.00 W/m2
08:39 9.2 °C 8.2 °C 1029.4 hPa SW 3.2 km/h 12.9 km/h 93% 0.0 mm 130.00 W/m2
08:44 9.3 °C 8.2 °C 1029.4 hPa SW 3.2 km/h 8.0 km/h 93% 0.0 mm 278.00 W/m2
08:49 9.4 °C 8.4 °C 1029.6 hPa SW 8.0 km/h 11.3 km/h 93% 0.0 mm 135.00 W/m2
08:54 9.5 °C 8.4 °C 1029.6 hPa SSW 9.7 km/h 11.3 km/h 93% 0.0 mm 204.00 W/m2
08:59 9.6 °C 8.6 °C 1029.5 hPa SW 6.4 km/h 12.9 km/h 93% 0.0 mm 392.00 W/m2
09:04 9.8 °C 8.6 °C 1029.6 hPa SW 11.3 km/h 14.5 km/h 92% 0.0 mm 221.00 W/m2
09:09 9.8 °C 8.6 °C 1029.6 hPa SW 6.4 km/h 16.1 km/h 92% 0.0 mm 260.00 W/m2
09:14 9.9 °C 8.7 °C 1029.5 hPa WSW 6.4 km/h 16.1 km/h 92% 0.0 mm 229.00 W/m2
09:19 9.9 °C 8.6 °C 1029.5 hPa WSW 12.9 km/h 14.5 km/h 91% 0.0 mm 176.00 W/m2
09:24 10.0 °C 8.6 °C 1029.4 hPa SW 12.9 km/h 12.9 km/h 91% 0.0 mm 209.00 W/m2
Compliments of Weather Underground - 3 mb